createdAt,value
2018-08-18T00:00:01.681Z,9.20
2018-08-18T00:02:34.992Z,9.60
2018-08-18T00:05:03.627Z,8.80
2018-08-18T00:07:32.601Z,7.13
2018-08-18T00:10:01.219Z,7.90
2018-08-18T00:12:29.983Z,6.83
2018-08-18T00:14:59.026Z,8.70
2018-08-18T00:17:27.787Z,6.93
2018-08-18T00:19:56.524Z,6.77
2018-08-18T00:22:25.128Z,8.33
2018-08-18T00:24:58.732Z,7.33
2018-08-18T00:27:27.687Z,8.37
2018-08-18T00:30:01.538Z,7.40
2018-08-18T00:32:30.657Z,8.40
2018-08-18T00:34:59.677Z,6.83
2018-08-18T00:37:28.193Z,13.73
2018-08-18T00:39:57.240Z,7.70
2018-08-18T00:42:25.970Z,6.13
2018-08-18T00:44:54.670Z,7.10
2018-08-18T00:47:23.236Z,8.53
2018-08-18T00:49:51.744Z,5.80
2018-08-18T00:52:20.247Z,10.07
2018-08-18T00:54:48.734Z,6.40
2018-08-18T00:57:30.608Z,6.67
2018-08-18T00:59:59.344Z,9.70
2018-08-18T01:02:28.454Z,10.90
2018-08-18T01:05:01.251Z,10.20
2018-08-18T01:07:30.994Z,6.73
2018-08-18T01:09:59.978Z,7.80
2018-08-18T01:12:29.167Z,8.83
2018-08-18T01:14:58.502Z,7.30
2018-08-18T01:17:27.023Z,8.43
2018-08-18T01:19:57.962Z,9.13
2018-08-18T01:22:26.648Z,8.67
2018-08-18T01:24:55.344Z,8.80
2018-08-18T01:27:23.936Z,6.20
2018-08-18T01:29:57.745Z,6.73
2018-08-18T01:32:26.294Z,7.50
2018-08-18T01:34:55.040Z,9.10
2018-08-18T01:37:23.642Z,8.70
2018-08-18T01:39:54.370Z,7.23
2018-08-18T01:42:23.434Z,8.70
2018-08-18T01:44:54.367Z,10.43
2018-08-18T01:47:22.974Z,7.27
2018-08-18T01:49:51.823Z,8.30
2018-08-18T01:52:20.647Z,6.57
2018-08-18T01:54:49.290Z,5.37
2018-08-18T01:57:19.471Z,6.57
2018-08-18T01:59:48.279Z,6.50
2018-08-18T02:02:22.843Z,5.90
2018-08-18T02:04:51.795Z,6.90
2018-08-18T02:07:27.042Z,8.50
2018-08-18T02:09:56.361Z,8.80
2018-08-18T02:12:25.435Z,6.33
2018-08-18T02:14:54.486Z,8.00
2018-08-18T02:17:26.995Z,8.03
2018-08-18T02:19:55.967Z,8.73
2018-08-18T02:22:25.384Z,6.90
2018-08-18T02:24:54.193Z,8.67
2018-08-18T02:27:22.901Z,6.87
2018-08-18T02:30:03.413Z,6.77
2018-08-18T02:32:33.786Z,7.40
2018-08-18T02:35:02.294Z,6.43
2018-08-18T02:37:31.651Z,8.50
2018-08-18T02:40:00.258Z,9.33
2018-08-18T02:42:28.811Z,8.27
2018-08-18T02:44:57.368Z,6.93
2018-08-18T02:47:25.879Z,7.47
2018-08-18T02:49:55.523Z,7.40
2018-08-18T02:52:27.106Z,6.07
2018-08-18T02:54:57.600Z,8.20
2018-08-18T02:57:30.637Z,8.17
2018-08-18T03:00:01.793Z,7.53
2018-08-18T03:02:30.338Z,8.77
2018-08-18T03:04:58.903Z,6.63
2018-08-18T03:07:36.144Z,7.23
2018-08-18T03:10:10.789Z,8.47
2018-08-18T03:12:45.796Z,6.80
2018-08-18T03:15:32.841Z,8.53
2018-08-18T03:18:01.370Z,8.37
2018-08-18T03:20:29.901Z,6.87
2018-08-18T03:22:58.465Z,7.47
2018-08-18T03:25:38.200Z,7.33
2018-08-18T03:28:06.953Z,12.00
2018-08-18T03:30:35.571Z,7.77
2018-08-18T03:33:04.185Z,10.13
2018-08-18T03:35:33.432Z,8.13
2018-08-18T03:38:02.635Z,7.10
2018-08-18T03:40:32.067Z,8.80
2018-08-18T03:43:01.282Z,9.73
2018-08-18T03:45:29.875Z,10.73
2018-08-18T03:47:58.478Z,8.37
2018-08-18T03:50:41.158Z,9.53
2018-08-18T03:53:09.706Z,7.73
2018-08-18T03:55:38.625Z,6.23
2018-08-18T03:58:09.092Z,8.47
2018-08-18T04:00:38.213Z,9.20
2018-08-18T04:03:06.979Z,9.47
2018-08-18T04:05:36.016Z,8.67
2018-08-18T04:08:05.513Z,7.87
2018-08-18T04:10:34.125Z,9.67
2018-08-18T04:13:03.439Z,7.57
2018-08-18T04:15:32.151Z,9.20
2018-08-18T04:18:05.261Z,7.03
2018-08-18T04:20:33.846Z,6.67
2018-08-18T04:23:02.535Z,7.97
2018-08-18T04:25:31.123Z,9.03
2018-08-18T04:28:00.192Z,8.83
2018-08-18T04:30:29.313Z,10.83
2018-08-18T04:33:01.904Z,9.53
2018-08-18T04:35:32.192Z,7.50
2018-08-18T04:38:03.995Z,9.97
2018-08-18T04:40:34.451Z,9.07
2018-08-18T04:43:03.148Z,10.40
2018-08-18T04:45:32.717Z,8.20
2018-08-18T04:48:01.315Z,8.23
2018-08-18T04:50:31.303Z,7.73
2018-08-18T04:53:00.028Z,9.53
2018-08-18T04:55:29.593Z,7.97
2018-08-18T04:57:58.194Z,9.07
2018-08-18T05:00:28.693Z,8.00
2018-08-18T05:02:59.718Z,9.53
2018-08-18T05:05:30.676Z,9.40
2018-08-18T05:08:00.815Z,8.60
2018-08-18T05:10:29.826Z,6.63
2018-08-18T05:12:59.537Z,10.73
2018-08-18T05:15:28.673Z,9.27
2018-08-18T05:17:57.904Z,9.80
2018-08-18T05:20:28.678Z,10.47
2018-08-18T05:23:15.743Z,9.83
2018-08-18T05:25:46.605Z,6.70
2018-08-18T05:28:18.537Z,7.27
2018-08-18T05:30:54.248Z,7.77
2018-08-18T05:33:31.196Z,8.30
2018-08-18T05:36:05.228Z,6.60
2018-08-18T05:38:36.859Z,11.57
2018-08-18T05:41:08.629Z,9.77
2018-08-18T05:43:40.860Z,9.70
2018-08-18T05:46:11.188Z,10.90
2018-08-18T05:48:42.250Z,11.57
2018-08-18T05:51:13.271Z,9.97
2018-08-18T05:53:44.569Z,12.60
2018-08-18T05:56:15.697Z,8.53
2018-08-18T05:58:54.366Z,6.90
2018-08-18T06:01:34.886Z,8.93
2018-08-18T06:04:09.834Z,7.53
2018-08-18T06:06:40.441Z,10.23
2018-08-18T06:09:13.796Z,8.93
2018-08-18T06:11:45.086Z,7.50
2018-08-18T06:14:19.190Z,9.57
2018-08-18T06:16:50.999Z,8.07
2018-08-18T06:19:21.033Z,6.30
2018-08-18T06:21:50.212Z,6.43
2018-08-18T06:24:18.807Z,9.33
2018-08-18T06:26:47.728Z,7.40
2018-08-18T06:29:16.837Z,5.47
2018-08-18T06:31:58.197Z,8.43
2018-08-18T06:34:28.399Z,6.20
2018-08-18T06:36:57.555Z,6.23
2018-08-18T06:39:26.278Z,7.80
2018-08-18T06:41:55.468Z,9.63
2018-08-18T06:44:27.343Z,7.43
2018-08-18T06:46:56.132Z,7.47
2018-08-18T06:49:24.740Z,6.57
2018-08-18T06:51:53.389Z,6.33
2018-08-18T06:54:22.058Z,10.43
2018-08-18T06:56:50.589Z,9.67
2018-08-18T06:59:19.668Z,9.40
2018-08-18T07:01:48.915Z,6.70
2018-08-18T07:04:21.915Z,7.27
2018-08-18T07:06:50.957Z,8.03
2018-08-18T07:09:19.518Z,6.40
2018-08-18T07:11:48.147Z,6.37
2018-08-18T07:14:16.789Z,6.93
2018-08-18T07:16:45.351Z,7.43
2018-08-18T07:19:14.350Z,6.07
2018-08-18T07:21:42.983Z,5.70
2018-08-18T07:24:11.600Z,9.70
2018-08-18T07:26:41.704Z,9.40
2018-08-18T07:29:10.549Z,10.10
2018-08-18T07:31:39.304Z,12.00
2018-08-18T07:34:08.381Z,9.60
2018-08-18T07:36:37.259Z,11.00
2018-08-18T07:39:08.008Z,7.47
2018-08-18T07:41:37.038Z,8.77
2018-08-18T07:44:06.252Z,10.00
2018-08-18T07:46:34.921Z,8.50
2018-08-18T07:49:03.557Z,11.40
2018-08-18T07:51:32.120Z,7.77
2018-08-18T07:54:00.764Z,8.57
2018-08-18T07:56:29.565Z,9.37
2018-08-18T07:58:58.189Z,11.77
2018-08-18T08:01:26.715Z,8.53
2018-08-18T08:03:56.036Z,7.83
2018-08-18T08:06:24.548Z,8.03
2018-08-18T08:08:53.317Z,7.20
2018-08-18T08:11:22.433Z,10.20
2018-08-18T08:13:50.935Z,9.23
2018-08-18T08:16:19.508Z,9.70
2018-08-18T08:18:48.163Z,8.33
2018-08-18T08:21:16.901Z,7.93
2018-08-18T08:23:45.595Z,9.63
2018-08-18T08:26:14.552Z,8.90
2018-08-18T08:28:43.072Z,7.87
2018-08-18T08:31:11.871Z,7.67
2018-08-18T08:33:40.663Z,7.20
2018-08-18T08:36:13.160Z,7.03
2018-08-18T08:38:54.373Z,10.17
2018-08-18T08:41:25.311Z,7.50
2018-08-18T08:43:53.948Z,7.77
2018-08-18T08:46:23.284Z,7.87
2018-08-18T08:48:55.344Z,8.30
2018-08-18T08:51:23.929Z,8.80
2018-08-18T08:53:54.059Z,10.60
2018-08-18T08:56:28.745Z,8.03
2018-08-18T08:58:57.523Z,8.93
2018-08-18T09:01:26.064Z,9.73
2018-08-18T09:03:54.743Z,10.77
2018-08-18T09:06:23.323Z,7.60
2018-08-18T09:08:56.334Z,8.07
2018-08-18T09:11:25.782Z,9.73
2018-08-18T09:14:02.752Z,7.83
2018-08-18T09:16:32.707Z,9.27
2018-08-18T09:19:01.382Z,8.27
2018-08-18T09:21:38.666Z,6.87
2018-08-18T09:24:07.953Z,6.53
2018-08-18T09:26:42.189Z,4.97
2018-08-18T09:29:11.214Z,7.50
2018-08-18T09:31:40.265Z,6.93
2018-08-18T09:34:08.895Z,6.53
2018-08-18T09:36:38.240Z,6.17
2018-08-18T09:39:12.723Z,7.43
2018-08-18T09:41:41.275Z,9.87
2018-08-18T09:44:15.097Z,8.83
2018-08-18T09:46:44.806Z,6.10
2018-08-18T09:49:13.450Z,6.63
2018-08-18T09:51:42.080Z,5.97
2018-08-18T09:54:10.763Z,5.60
2018-08-18T09:56:39.620Z,4.93
2018-08-18T09:59:08.442Z,7.03
2018-08-18T10:01:37.337Z,8.80
2018-08-18T10:04:06.290Z,7.07
2018-08-18T10:06:35.642Z,5.70
2018-08-18T10:09:07.552Z,5.33
2018-08-18T10:11:36.636Z,5.27
2018-08-18T10:14:06.000Z,6.03
2018-08-18T10:16:35.073Z,7.53
2018-08-18T10:19:04.551Z,5.47
2018-08-18T10:21:33.295Z,6.13
2018-08-18T10:24:02.730Z,5.40
2018-08-18T10:26:31.435Z,5.13
2018-08-18T10:29:13.637Z,6.03
2018-08-18T10:31:47.605Z,4.73
2018-08-18T10:34:17.480Z,4.47
2018-08-18T10:36:48.576Z,5.63
2018-08-18T10:39:17.213Z,6.87
2018-08-18T10:41:57.160Z,4.83
2018-08-18T10:44:26.545Z,4.73
2018-08-18T10:47:17.038Z,5.43
2018-08-18T10:49:56.998Z,4.10
2018-08-18T10:52:37.614Z,4.27
2018-08-18T10:55:07.977Z,6.13
2018-08-18T10:57:49.096Z,4.80
2018-08-18T11:00:19.109Z,6.10
2018-08-18T11:02:52.516Z,3.77
2018-08-18T11:05:21.923Z,5.50
2018-08-18T11:07:56.801Z,4.43
2018-08-18T11:10:27.048Z,7.10
2018-08-18T11:12:55.683Z,6.80
2018-08-18T11:15:24.609Z,6.83
2018-08-18T11:17:53.538Z,5.37
2018-08-18T11:20:27.536Z,3.60
2018-08-18T11:23:06.859Z,5.53
2018-08-18T11:25:37.795Z,5.47
2018-08-18T11:28:07.241Z,4.77
2018-08-18T11:30:35.937Z,4.17
2018-08-18T11:33:05.238Z,3.80
2018-08-18T11:35:34.753Z,5.93
2018-08-18T11:38:15.620Z,4.10
2018-08-18T11:40:44.476Z,3.83
2018-08-18T11:43:16.289Z,2.90
2018-08-18T11:45:45.723Z,4.27
2018-08-18T11:48:23.944Z,4.43
2018-08-18T11:50:53.924Z,2.87
2018-08-18T11:53:22.505Z,3.30
2018-08-18T11:55:51.112Z,7.30
2018-08-18T11:58:21.937Z,2.57
2018-08-18T12:00:55.772Z,4.83
2018-08-18T12:03:28.048Z,3.57
2018-08-18T12:05:58.146Z,3.00
2018-08-18T12:08:28.206Z,3.20
2018-08-18T12:10:58.495Z,3.77
2018-08-18T12:13:32.455Z,3.77
2018-08-18T12:16:17.783Z,4.90
2018-08-18T12:18:47.977Z,3.57
2018-08-18T12:21:16.862Z,4.40
2018-08-18T12:23:47.639Z,2.37
2018-08-18T12:26:19.062Z,4.20
2018-08-18T12:28:48.972Z,4.47
2018-08-18T12:31:21.856Z,6.77
2018-08-18T12:33:51.157Z,4.40
2018-08-18T12:36:20.073Z,3.30
2018-08-18T12:38:51.634Z,3.80
2018-08-18T12:41:21.069Z,4.00
2018-08-18T12:43:51.672Z,3.53
2018-08-18T12:46:23.373Z,5.77
2018-08-18T12:48:53.924Z,4.57
2018-08-18T12:51:22.958Z,5.23
2018-08-18T12:53:54.625Z,2.93
2018-08-18T12:56:25.217Z,4.27
2018-08-18T12:58:54.271Z,4.47
2018-08-18T13:01:39.588Z,3.97
2018-08-18T13:04:10.472Z,5.60
2018-08-18T13:06:41.384Z,3.87
2018-08-18T13:09:12.050Z,4.60
2018-08-18T13:11:41.667Z,3.13
2018-08-18T13:14:10.380Z,3.00
2018-08-18T13:16:40.263Z,3.00
2018-08-18T13:19:09.160Z,2.53
2018-08-18T13:21:39.496Z,4.20
2018-08-18T13:24:08.172Z,4.00
2018-08-18T13:26:39.620Z,5.03
2018-08-18T13:29:09.733Z,3.60
2018-08-18T13:31:41.536Z,2.70
2018-08-18T13:34:13.447Z,3.60
2018-08-18T13:36:43.951Z,2.37
2018-08-18T13:39:16.498Z,3.63
2018-08-18T13:41:46.411Z,2.30
2018-08-18T13:44:28.830Z,2.20
2018-08-18T13:46:57.479Z,3.63
2018-08-18T13:49:27.097Z,3.57
2018-08-18T13:51:55.808Z,4.90
2018-08-18T13:54:27.626Z,3.20
2018-08-18T13:56:57.927Z,3.07
2018-08-18T13:59:39.560Z,3.73
2018-08-18T14:02:11.726Z,3.80
2018-08-18T14:04:44.711Z,5.40
2018-08-18T14:07:15.588Z,2.43
2018-08-18T14:09:53.243Z,3.77
2018-08-18T14:12:24.115Z,2.67
2018-08-18T14:14:54.942Z,2.50
2018-08-18T14:17:24.966Z,5.17
2018-08-18T14:19:54.955Z,3.40
2018-08-18T14:22:24.920Z,4.20
2018-08-18T14:25:06.028Z,4.70
2018-08-18T14:27:35.382Z,4.03
2018-08-18T14:30:05.493Z,1.97
2018-08-18T14:32:36.087Z,3.73
2018-08-18T14:35:07.207Z,3.33
2018-08-18T14:37:41.424Z,2.50
2018-08-18T14:40:15.680Z,6.20
2018-08-18T14:42:46.369Z,2.03
2018-08-18T14:45:17.162Z,2.13
2018-08-18T14:47:48.680Z,2.20
2018-08-18T14:50:24.281Z,2.93
2018-08-18T14:52:54.511Z,2.37
2018-08-18T14:55:24.766Z,2.13
2018-08-18T14:58:06.297Z,1.97
2018-08-18T15:00:35.916Z,2.23
2018-08-18T15:03:06.265Z,2.57
2018-08-18T15:05:36.719Z,1.50
2018-08-18T15:08:06.692Z,1.83
2018-08-18T15:10:45.205Z,3.60
2018-08-18T15:13:15.544Z,3.30
2018-08-18T15:15:46.211Z,2.10
2018-08-18T15:18:16.921Z,2.87
2018-08-18T15:20:47.712Z,3.03
2018-08-18T15:23:17.423Z,2.23
2018-08-18T15:25:46.980Z,3.03
2018-08-18T15:28:17.003Z,3.87
2018-08-18T15:30:47.967Z,2.10
2018-08-18T15:33:18.654Z,2.30
2018-08-18T15:35:47.356Z,2.40
2018-08-18T15:38:16.521Z,2.70
2018-08-18T15:40:45.235Z,2.07
2018-08-18T15:43:13.900Z,1.90
2018-08-18T15:45:58.441Z,2.40
2018-08-18T15:48:27.633Z,2.07
2018-08-18T15:50:56.230Z,2.40
2018-08-18T15:53:58.205Z,1.70
2018-08-18T15:56:27.910Z,2.13
2018-08-18T15:58:57.122Z,2.17
2018-08-18T16:01:26.944Z,3.73
2018-08-18T16:03:56.489Z,2.87
2018-08-18T16:06:25.952Z,1.80
2018-08-18T16:08:55.262Z,2.17
2018-08-18T16:11:24.069Z,1.87
2018-08-18T16:13:53.023Z,1.97
2018-08-18T16:16:21.561Z,1.70
2018-08-18T16:18:54.685Z,1.73
2018-08-18T16:21:24.292Z,2.00
2018-08-18T16:23:52.929Z,2.60
2018-08-18T16:26:21.645Z,2.00
2018-08-18T16:28:52.597Z,1.50
2018-08-18T16:31:21.673Z,2.77
2018-08-18T16:33:52.631Z,2.37
2018-08-18T16:36:21.223Z,1.80
2018-08-18T16:38:50.082Z,2.03
2018-08-18T16:41:18.625Z,2.37
2018-08-18T16:43:47.246Z,1.87
2018-08-18T16:46:29.878Z,2.60
2018-08-18T16:48:59.309Z,2.17
2018-08-18T16:51:28.077Z,1.60
2018-08-18T16:54:03.821Z,1.90
2018-08-18T16:56:32.647Z,1.70
2018-08-18T16:59:01.547Z,1.60
2018-08-18T17:01:30.516Z,2.00
2018-08-18T17:03:59.247Z,1.97
2018-08-18T17:06:28.173Z,2.77
2018-08-18T17:08:56.819Z,2.33
2018-08-18T17:11:25.386Z,1.93
2018-08-18T17:13:54.456Z,2.13
2018-08-18T17:16:23.524Z,2.33
2018-08-18T17:18:52.225Z,3.17
2018-08-18T17:21:21.323Z,3.20
2018-08-18T17:23:50.845Z,1.77
2018-08-18T17:26:20.036Z,2.10
2018-08-18T17:28:48.730Z,3.07
2018-08-18T17:31:17.347Z,2.33
2018-08-18T17:33:46.921Z,1.83
2018-08-18T17:36:16.303Z,2.77
2018-08-18T17:38:45.046Z,2.17
2018-08-18T17:41:13.737Z,3.07
2018-08-18T17:43:42.443Z,3.43
2018-08-18T17:46:11.404Z,3.93
2018-08-18T17:48:45.588Z,3.13
2018-08-18T17:51:14.812Z,3.30
2018-08-18T17:53:58.684Z,6.23
2018-08-18T17:56:27.799Z,4.50
2018-08-18T17:58:58.585Z,4.93
2018-08-18T18:01:27.429Z,2.60
2018-08-18T18:03:57.511Z,3.80
2018-08-18T18:06:28.151Z,3.20
2018-08-18T18:08:56.992Z,4.83
2018-08-18T18:11:27.064Z,3.13
2018-08-18T18:13:56.214Z,4.80
2018-08-18T18:16:27.961Z,5.10
2018-08-18T18:18:58.548Z,4.73
2018-08-18T18:21:27.178Z,4.63
2018-08-18T18:23:55.884Z,5.67
2018-08-18T18:26:24.576Z,6.13
2018-08-18T18:28:53.314Z,4.93
2018-08-18T18:31:22.552Z,3.20
2018-08-18T18:33:56.725Z,6.00
2018-08-18T18:36:25.383Z,3.57
2018-08-18T18:38:56.316Z,6.90
2018-08-18T18:41:25.263Z,3.90
2018-08-18T18:44:02.250Z,4.90
2018-08-18T18:46:31.898Z,3.10
2018-08-18T18:49:01.148Z,4.80
2018-08-18T18:51:29.819Z,5.50
2018-08-18T18:53:58.796Z,4.17
2018-08-18T18:56:28.294Z,3.80
2018-08-18T18:58:57.334Z,3.53
2018-08-18T19:01:27.096Z,5.03
2018-08-18T19:03:56.199Z,5.17
2018-08-18T19:06:25.264Z,5.67
2018-08-18T19:09:01.469Z,5.50
2018-08-18T19:11:30.575Z,6.30
2018-08-18T19:13:59.893Z,5.37
2018-08-18T19:16:28.550Z,6.50
2018-08-18T19:18:57.698Z,4.97
2018-08-18T19:21:31.540Z,5.47
2018-08-18T19:24:03.536Z,5.23
2018-08-18T19:26:45.332Z,5.27
2018-08-18T19:29:14.540Z,6.13
2018-08-18T19:31:43.430Z,4.53
2018-08-18T19:34:15.537Z,5.13
2018-08-18T19:36:56.861Z,6.20
2018-08-18T19:39:27.506Z,6.43
2018-08-18T19:42:09.923Z,4.67
2018-08-18T19:44:41.981Z,4.73
2018-08-18T19:47:11.624Z,4.20
2018-08-18T19:49:43.063Z,6.23
2018-08-18T19:52:19.216Z,4.40
2018-08-18T19:54:49.151Z,5.10
2018-08-18T19:57:25.628Z,3.40
2018-08-18T19:59:56.318Z,4.57
2018-08-18T20:02:24.934Z,4.73
2018-08-18T20:04:53.579Z,3.83
2018-08-18T20:07:22.355Z,3.67
2018-08-18T20:09:51.713Z,6.33
2018-08-18T20:12:20.296Z,4.67
2018-08-18T20:14:48.856Z,5.10
2018-08-18T20:17:17.834Z,6.23
2018-08-18T20:19:46.751Z,6.07
2018-08-18T20:22:15.776Z,5.40
2018-08-18T20:24:44.697Z,6.43
2018-08-18T20:27:13.297Z,5.97
2018-08-18T20:29:42.646Z,4.57
2018-08-18T20:32:11.236Z,4.87
2018-08-18T20:34:40.767Z,6.57
2018-08-18T20:37:09.314Z,6.67
2018-08-18T20:39:38.191Z,3.07
2018-08-18T20:42:07.543Z,4.60
2018-08-18T20:44:36.263Z,5.00
2018-08-18T20:47:06.067Z,7.70
2018-08-18T20:49:34.846Z,4.97
2018-08-18T20:52:03.850Z,4.30
2018-08-18T20:54:33.116Z,4.67
2018-08-18T20:57:01.704Z,6.87
2018-08-18T20:59:30.419Z,3.87
2018-08-18T21:01:59.122Z,4.97
2018-08-18T21:04:27.724Z,3.60
2018-08-18T21:06:56.608Z,4.37
2018-08-18T21:09:30.249Z,5.27
2018-08-18T21:11:58.955Z,4.00
2018-08-18T21:14:29.022Z,6.43
2018-08-18T21:16:58.462Z,3.63
2018-08-18T21:19:27.524Z,4.00
2018-08-18T21:21:57.149Z,3.87
2018-08-18T21:24:25.747Z,4.20
2018-08-18T21:26:54.441Z,3.23
2018-08-18T21:29:25.172Z,3.40
2018-08-18T21:31:53.870Z,5.87
2018-08-18T21:34:22.785Z,4.10
2018-08-18T21:36:51.414Z,5.63
2018-08-18T21:39:20.057Z,6.10
2018-08-18T21:41:49.311Z,4.67
2018-08-18T21:44:17.917Z,4.97
2018-08-18T21:46:46.554Z,6.13
2018-08-18T21:49:15.085Z,4.80
2018-08-18T21:51:44.483Z,5.77
2018-08-18T21:54:13.337Z,6.00
2018-08-18T21:56:43.185Z,4.33
2018-08-18T21:59:13.831Z,5.30
2018-08-18T22:01:42.655Z,8.03
2018-08-18T22:04:11.344Z,4.70
2018-08-18T22:06:40.783Z,5.83
2018-08-18T22:09:21.983Z,6.13
2018-08-18T22:11:50.869Z,4.30
2018-08-18T22:14:20.070Z,6.07
2018-08-18T22:16:54.491Z,6.10
2018-08-18T22:19:23.860Z,5.20
2018-08-18T22:21:52.555Z,6.13
2018-08-18T22:24:21.377Z,5.90
2018-08-18T22:26:50.449Z,7.07
2018-08-18T22:29:23.286Z,5.87
2018-08-18T22:31:52.410Z,6.23
2018-08-18T22:34:21.094Z,6.70
2018-08-18T22:36:49.727Z,7.83
2018-08-18T22:39:19.462Z,4.93
2018-08-18T22:41:48.320Z,8.80
2018-08-18T22:44:17.282Z,6.37
2018-08-18T22:46:45.894Z,6.13
2018-08-18T22:49:15.307Z,5.63
2018-08-18T22:51:45.342Z,8.07
2018-08-18T22:54:15.439Z,4.50
2018-08-18T22:56:49.795Z,4.03
2018-08-18T22:59:18.492Z,4.90
2018-08-18T23:01:48.622Z,2.90
2018-08-18T23:04:29.680Z,4.60
2018-08-18T23:07:00.348Z,3.50
2018-08-18T23:09:31.199Z,4.40
2018-08-18T23:12:04.579Z,5.23
2018-08-18T23:14:36.110Z,3.43
2018-08-18T23:17:08.098Z,3.30
2018-08-18T23:19:38.679Z,5.57
2018-08-18T23:22:13.371Z,3.13
2018-08-18T23:24:42.657Z,5.17
2018-08-18T23:27:12.592Z,4.60
2018-08-18T23:29:43.270Z,5.00
2018-08-18T23:32:21.968Z,3.50
2018-08-18T23:34:54.671Z,3.90
2018-08-18T23:37:24.681Z,7.77
2018-08-18T23:39:56.231Z,4.63
2018-08-18T23:42:27.657Z,4.17
2018-08-18T23:44:58.458Z,3.40
2018-08-18T23:47:29.966Z,5.87
2018-08-18T23:49:59.237Z,7.50
2018-08-18T23:52:28.039Z,5.37
2018-08-18T23:54:58.605Z,4.27
2018-08-18T23:57:28.445Z,5.03
2018-08-18T23:59:58.745Z,4.73
